createdAt,value
2023-01-21T00:01:11.394Z,-1.59
2023-01-21T00:03:39.632Z,-1.78
2023-01-21T00:06:08.341Z,-1.66
2023-01-21T00:08:36.323Z,-2.03
2023-01-21T00:11:07.710Z,-1.79
2023-01-21T00:13:36.570Z,-2.04
2023-01-21T00:16:05.448Z,-2.13
2023-01-21T00:18:35.378Z,-2.26
2023-01-21T00:21:03.617Z,-1.99
2023-01-21T00:23:31.610Z,-1.95
2023-01-21T00:26:00.094Z,-2.08
2023-01-21T00:28:29.497Z,-1.87
2023-01-21T00:31:01.575Z,-1.97
2023-01-21T00:33:30.255Z,-2.20
2023-01-21T00:36:01.530Z,-1.08
2023-01-21T00:38:30.048Z,-1.97
2023-01-21T00:41:01.885Z,-2.08
2023-01-21T00:43:29.669Z,-2.44
2023-01-21T00:45:57.845Z,-2.50
2023-01-21T00:48:26.201Z,-2.30
2023-01-21T00:50:55.877Z,-2.06
2023-01-21T00:53:25.203Z,-2.23
2023-01-21T00:55:52.927Z,-2.02
2023-01-21T00:58:20.955Z,-2.08
2023-01-21T01:00:48.832Z,-2.08
2023-01-21T01:03:16.643Z,-2.25
2023-01-21T01:05:44.644Z,-2.12
2023-01-21T01:08:12.370Z,-1.98
2023-01-21T01:10:41.519Z,-2.01
2023-01-21T01:13:09.354Z,-2.28
2023-01-21T01:15:37.163Z,-1.95
2023-01-21T01:18:05.201Z,-2.19
2023-01-21T01:20:32.975Z,-2.15
2023-01-21T01:23:00.859Z,-2.02
2023-01-21T01:25:28.643Z,-2.34
2023-01-21T01:27:57.824Z,-2.20
2023-01-21T01:30:25.625Z,-2.12
2023-01-21T01:32:53.420Z,-2.14
2023-01-21T01:35:21.222Z,-2.28
2023-01-21T01:37:49.069Z,-2.20
2023-01-21T01:40:17.192Z,-2.41
2023-01-21T01:42:45.094Z,-2.26
2023-01-21T01:45:21.471Z,-2.13
2023-01-21T01:47:58.101Z,-2.06
2023-01-21T01:50:30.030Z,-2.18
2023-01-21T01:53:00.212Z,-2.34
2023-01-21T01:55:29.464Z,-2.39
2023-01-21T01:57:58.820Z,-2.34
2023-01-21T02:00:28.740Z,-2.51
2023-01-21T02:03:15.578Z,-2.57
2023-01-21T02:05:45.055Z,-2.57
2023-01-21T02:08:13.099Z,-2.47
2023-01-21T02:10:40.942Z,-2.26
2023-01-21T02:13:09.020Z,-2.26
2023-01-21T02:15:56.426Z,-2.32
2023-01-21T02:18:33.079Z,-2.26
2023-01-21T02:21:37.793Z,-2.43
2023-01-21T02:24:44.077Z,-2.44
2023-01-21T02:27:37.350Z,-2.43
2023-01-21T02:30:42.141Z,-2.27
2023-01-21T02:33:22.495Z,-2.91
2023-01-21T02:35:56.110Z,-2.73
2023-01-21T02:38:30.936Z,-2.74
2023-01-21T02:41:07.211Z,-2.77
2023-01-21T02:43:44.422Z,-2.48
2023-01-21T02:46:19.556Z,-2.55
2023-01-21T02:48:57.746Z,-2.62
2023-01-21T02:51:26.060Z,-2.44
2023-01-21T02:53:53.880Z,-2.35
2023-01-21T02:56:25.900Z,-2.66
2023-01-21T02:58:59.709Z,-2.79
2023-01-21T03:01:38.093Z,-2.63
2023-01-21T03:04:29.281Z,-2.65
2023-01-21T03:07:07.555Z,-2.24
2023-01-21T03:09:37.283Z,-2.42
2023-01-21T03:12:22.500Z,-2.64
2023-01-21T03:15:18.446Z,-2.56
2023-01-21T03:17:52.724Z,-2.59
2023-01-21T03:20:27.008Z,-2.49
2023-01-21T03:23:00.400Z,-2.54
2023-01-21T03:25:30.365Z,-2.55
2023-01-21T03:28:01.098Z,-2.39
2023-01-21T03:30:31.075Z,-2.48
2023-01-21T03:33:00.076Z,-2.19
2023-01-21T03:35:32.966Z,-2.35
2023-01-21T03:38:09.085Z,-2.30
2023-01-21T03:40:41.809Z,-2.21
2023-01-21T03:43:10.792Z,-2.38
2023-01-21T03:45:44.276Z,-2.20
2023-01-21T03:48:20.045Z,-2.34
2023-01-21T03:50:55.407Z,-2.23
2023-01-21T03:53:23.446Z,-2.32
2023-01-21T03:55:51.705Z,-2.37
2023-01-21T03:58:19.696Z,-0.68
2023-01-21T04:00:49.226Z,-0.22
2023-01-21T04:03:17.180Z,-2.13
2023-01-21T04:05:44.974Z,-2.52
2023-01-21T04:08:14.235Z,-2.74
2023-01-21T04:10:42.052Z,-2.68
2023-01-21T04:13:09.910Z,-2.58
2023-01-21T04:15:37.723Z,-2.72
2023-01-21T04:18:05.591Z,-2.71
2023-01-21T04:20:33.430Z,-2.86
2023-01-21T04:23:01.288Z,-2.79
2023-01-21T04:25:30.410Z,-2.88
2023-01-21T04:27:58.267Z,-2.80
2023-01-21T04:30:26.245Z,-2.46
2023-01-21T04:32:54.191Z,-2.38
2023-01-21T04:35:22.012Z,-2.39
2023-01-21T04:37:49.816Z,-2.34
2023-01-21T04:40:18.446Z,-2.32
2023-01-21T04:42:47.716Z,-2.50
2023-01-21T04:45:15.666Z,-2.71
2023-01-21T04:47:44.269Z,-2.56
2023-01-21T04:50:14.165Z,-2.20
2023-01-21T04:52:42.541Z,-2.40
2023-01-21T04:55:11.503Z,-2.27
2023-01-21T04:57:39.374Z,-2.09
2023-01-21T05:00:10.815Z,-2.21
2023-01-21T05:02:38.768Z,-2.32
2023-01-21T05:05:07.610Z,-2.49
2023-01-21T05:07:35.453Z,-2.08
2023-01-21T05:10:03.272Z,-1.85
2023-01-21T05:12:31.085Z,-2.13
2023-01-21T05:14:58.936Z,-2.16
2023-01-21T05:17:28.124Z,-2.16
2023-01-21T05:19:55.849Z,-2.68
2023-01-21T05:22:23.658Z,-2.56
2023-01-21T05:24:51.457Z,-2.65
2023-01-21T05:27:19.949Z,-2.42
2023-01-21T05:29:47.749Z,-2.74
2023-01-21T05:32:15.582Z,-3.03
2023-01-21T05:34:44.729Z,-3.18
2023-01-21T05:37:12.996Z,-2.94
2023-01-21T05:39:41.026Z,-2.67
2023-01-21T05:42:08.842Z,-2.54
2023-01-21T05:44:36.844Z,-2.60
2023-01-21T05:47:04.690Z,-2.93
2023-01-21T05:49:32.575Z,-2.81
2023-01-21T05:52:02.384Z,-2.85
2023-01-21T05:54:30.237Z,-2.97
2023-01-21T05:56:58.091Z,-2.81
2023-01-21T05:59:26.091Z,-2.62
2023-01-21T06:01:54.038Z,-3.22
2023-01-21T06:04:23.933Z,-2.86
2023-01-21T06:06:51.806Z,-3.28
2023-01-21T06:09:20.897Z,-3.12
2023-01-21T06:11:48.693Z,-3.17
2023-01-21T06:14:16.495Z,-2.96
2023-01-21T06:16:44.274Z,-2.92
2023-01-21T06:19:12.012Z,-2.71
2023-01-21T06:21:39.866Z,-2.88
2023-01-21T06:24:08.132Z,-2.76
2023-01-21T06:26:37.372Z,-2.16
2023-01-21T06:29:05.231Z,-2.35
2023-01-21T06:31:33.099Z,-2.39
2023-01-21T06:34:01.031Z,-2.32
2023-01-21T06:36:28.871Z,-2.36
2023-01-21T06:38:56.648Z,-2.23
2023-01-21T06:41:24.469Z,-2.36
2023-01-21T06:43:53.685Z,-2.26
2023-01-21T06:46:21.518Z,-2.12
2023-01-21T06:48:49.310Z,-2.38
2023-01-21T06:51:17.213Z,-2.20
2023-01-21T06:53:45.028Z,-2.11
2023-01-21T06:56:12.836Z,-1.97
2023-01-21T06:58:40.584Z,-1.98
2023-01-21T07:01:09.744Z,-1.72
2023-01-21T07:03:37.607Z,-1.65
2023-01-21T07:06:05.724Z,-1.80
2023-01-21T07:08:33.500Z,-1.68
2023-01-21T07:11:01.356Z,-1.42
2023-01-21T07:13:29.144Z,-1.40
2023-01-21T07:16:00.693Z,-1.33
2023-01-21T07:18:30.024Z,-1.24
2023-01-21T07:20:58.241Z,-1.28
2023-01-21T07:23:26.239Z,-1.19
2023-01-21T07:25:54.041Z,-0.81
2023-01-21T07:28:21.867Z,-0.13
2023-01-21T07:30:49.639Z,1.14
2023-01-21T07:33:17.509Z,1.31
2023-01-21T07:35:46.631Z,1.10
2023-01-21T07:38:14.489Z,1.20
2023-01-21T07:40:42.224Z,1.05
2023-01-21T07:43:10.314Z,1.38
2023-01-21T07:45:38.251Z,1.26
2023-01-21T07:48:06.659Z,1.23
2023-01-21T07:50:35.412Z,1.37
2023-01-21T07:53:04.709Z,1.34
2023-01-21T07:55:32.748Z,1.48
2023-01-21T07:58:00.954Z,1.37
2023-01-21T08:00:29.217Z,1.17
2023-01-21T08:02:57.599Z,-0.15
2023-01-21T08:05:26.360Z,-0.12
2023-01-21T08:07:58.059Z,-0.19
2023-01-21T08:10:27.981Z,1.37
2023-01-21T08:12:55.710Z,1.49
2023-01-21T08:15:23.591Z,1.72
2023-01-21T08:17:51.365Z,1.82
2023-01-21T08:20:19.547Z,2.11
2023-01-21T08:22:47.330Z,-0.08
2023-01-21T08:25:15.258Z,-0.47
2023-01-21T08:27:44.577Z,-0.42
2023-01-21T08:30:12.979Z,-0.20
2023-01-21T08:32:40.742Z,-0.37
2023-01-21T08:35:09.680Z,0.21
2023-01-21T08:37:39.600Z,0.15
2023-01-21T08:40:09.058Z,0.19
2023-01-21T08:42:36.834Z,0.20
2023-01-21T08:45:07.495Z,-0.09
2023-01-21T08:47:35.309Z,-0.06
2023-01-21T08:50:03.488Z,0.04
2023-01-21T08:52:31.291Z,0.35
2023-01-21T08:54:59.154Z,0.34
2023-01-21T08:57:27.920Z,0.12
2023-01-21T08:59:55.762Z,0.25
2023-01-21T09:02:24.983Z,0.18
2023-01-21T09:04:52.797Z,0.28
2023-01-21T09:07:20.623Z,0.45
2023-01-21T09:09:48.914Z,0.48
2023-01-21T09:12:16.765Z,0.42
2023-01-21T09:14:44.617Z,0.31
2023-01-21T09:17:12.470Z,0.51
2023-01-21T09:19:41.605Z,0.32
2023-01-21T09:22:09.454Z,0.45
2023-01-21T09:24:37.228Z,0.41
2023-01-21T09:27:07.207Z,0.64
2023-01-21T09:29:35.631Z,0.71
2023-01-21T09:32:05.187Z,1.02
2023-01-21T09:34:35.576Z,0.44
2023-01-21T09:37:05.249Z,0.88
2023-01-21T09:39:33.125Z,0.64
2023-01-21T09:42:00.863Z,1.00
2023-01-21T09:44:33.316Z,0.95
2023-01-21T09:47:04.953Z,0.71
2023-01-21T09:49:38.984Z,0.69
2023-01-21T09:52:20.237Z,0.56
2023-01-21T09:54:48.261Z,0.98
2023-01-21T09:57:42.383Z,0.94
2023-01-21T10:00:26.976Z,0.81
2023-01-21T10:03:03.098Z,1.06
2023-01-21T10:06:03.931Z,0.94
2023-01-21T10:08:44.488Z,1.04
2023-01-21T10:11:27.727Z,0.92
2023-01-21T10:14:15.491Z,1.20
2023-01-21T10:16:51.505Z,1.52
2023-01-21T10:19:24.511Z,1.49
2023-01-21T10:21:57.013Z,1.61
2023-01-21T10:24:32.242Z,1.79
2023-01-21T10:27:01.293Z,1.95
2023-01-21T10:29:29.884Z,1.91
2023-01-21T10:32:03.286Z,1.84
2023-01-21T10:34:32.815Z,1.75
2023-01-21T10:37:08.494Z,2.39
2023-01-21T10:39:48.723Z,2.27
2023-01-21T10:42:39.684Z,2.21
2023-01-21T10:45:22.797Z,2.33
2023-01-21T10:47:57.762Z,2.15
2023-01-21T10:50:39.199Z,1.90
2023-01-21T10:53:18.377Z,2.31
2023-01-21T10:56:01.643Z,2.18
2023-01-21T10:58:34.637Z,2.46
2023-01-21T11:01:07.467Z,2.29
2023-01-21T11:03:41.195Z,2.42
2023-01-21T11:06:12.424Z,2.46
2023-01-21T11:08:44.519Z,2.77
2023-01-21T11:11:14.282Z,2.86
2023-01-21T11:13:42.178Z,2.74
2023-01-21T11:16:10.031Z,2.45
2023-01-21T11:18:39.817Z,2.68
2023-01-21T11:21:18.475Z,2.65
2023-01-21T11:23:55.033Z,2.96
2023-01-21T11:26:26.945Z,2.67
2023-01-21T11:29:13.672Z,2.92
2023-01-21T11:31:42.940Z,2.79
2023-01-21T11:34:15.105Z,2.77
2023-01-21T11:36:56.189Z,2.43
2023-01-21T11:39:24.985Z,2.89
2023-01-21T11:41:55.318Z,2.54
2023-01-21T11:44:23.870Z,2.81
2023-01-21T11:46:52.695Z,3.05
2023-01-21T11:49:26.193Z,3.18
2023-01-21T11:52:15.323Z,3.22
2023-01-21T11:54:43.404Z,2.63
2023-01-21T11:57:26.770Z,2.80
2023-01-21T11:59:59.076Z,2.82
2023-01-21T12:02:30.692Z,3.02
2023-01-21T12:05:03.013Z,2.84
2023-01-21T12:07:33.935Z,2.99
2023-01-21T12:10:09.058Z,3.14
2023-01-21T12:12:50.507Z,3.06
2023-01-21T12:15:29.371Z,3.13
2023-01-21T12:18:05.352Z,3.50
2023-01-21T12:20:40.135Z,3.21
2023-01-21T12:23:50.232Z,3.13
2023-01-21T12:26:37.824Z,2.92
2023-01-21T12:29:44.498Z,3.15
2023-01-21T12:32:20.625Z,3.26
2023-01-21T12:34:56.997Z,2.93
2023-01-21T12:37:32.291Z,2.76
2023-01-21T12:40:05.609Z,3.26
2023-01-21T12:42:40.352Z,3.00
2023-01-21T12:45:15.424Z,3.05
2023-01-21T12:47:47.935Z,3.05
2023-01-21T12:50:23.697Z,3.24
2023-01-21T12:53:04.934Z,3.24
2023-01-21T12:55:40.132Z,3.18
2023-01-21T12:58:14.014Z,2.75
2023-01-21T13:00:47.169Z,3.22
2023-01-21T13:03:25.971Z,3.02
2023-01-21T13:05:59.832Z,3.31
2023-01-21T13:08:54.499Z,3.01
2023-01-21T13:11:25.181Z,2.94
2023-01-21T13:14:01.014Z,2.65
2023-01-21T13:16:31.348Z,2.63
2023-01-21T13:18:59.797Z,2.95
2023-01-21T13:21:37.358Z,3.12
2023-01-21T13:24:16.696Z,3.06
2023-01-21T13:26:51.524Z,3.21
2023-01-21T13:29:28.165Z,2.86
2023-01-21T13:32:20.244Z,2.75
2023-01-21T13:34:57.011Z,2.91
2023-01-21T13:37:33.298Z,3.11
2023-01-21T13:40:20.056Z,2.72
2023-01-21T13:42:54.704Z,3.11
2023-01-21T13:45:31.514Z,3.16
2023-01-21T13:48:20.833Z,3.15
2023-01-21T13:51:18.963Z,2.88
2023-01-21T13:54:04.473Z,2.95
2023-01-21T13:56:49.161Z,2.85
2023-01-21T13:59:22.529Z,2.67
2023-01-21T14:01:57.120Z,2.88
2023-01-21T14:04:33.753Z,3.08
2023-01-21T14:07:05.685Z,2.93
2023-01-21T14:09:40.301Z,2.93
2023-01-21T14:12:15.731Z,3.18
2023-01-21T14:15:07.866Z,2.95
2023-01-21T14:18:03.237Z,3.04
2023-01-21T14:21:15.895Z,3.27
2023-01-21T14:24:04.965Z,3.36
2023-01-21T14:27:03.581Z,2.93
2023-01-21T14:29:36.527Z,3.18
2023-01-21T14:32:13.799Z,3.46
2023-01-21T14:34:47.752Z,3.41
2023-01-21T14:37:25.272Z,3.27
2023-01-21T14:40:04.539Z,3.41
2023-01-21T14:42:43.510Z,3.40
2023-01-21T14:45:13.883Z,3.24
2023-01-21T14:47:44.862Z,3.16
2023-01-21T14:50:32.805Z,3.05
2023-01-21T14:53:02.031Z,3.11
2023-01-21T14:55:31.726Z,3.14
2023-01-21T14:58:01.877Z,3.17
2023-01-21T15:00:32.169Z,3.02
2023-01-21T15:03:15.410Z,3.10
2023-01-21T15:05:45.636Z,2.97
2023-01-21T15:08:19.966Z,3.05
2023-01-21T15:10:53.379Z,2.95
2023-01-21T15:13:31.779Z,2.85
2023-01-21T15:16:15.347Z,2.81
2023-01-21T15:18:48.441Z,2.93
2023-01-21T15:21:36.317Z,3.18
2023-01-21T15:24:26.062Z,2.85
2023-01-21T15:27:27.975Z,2.54
2023-01-21T15:30:28.636Z,2.78
2023-01-21T15:32:57.220Z,2.55
2023-01-21T15:35:31.365Z,2.72
2023-01-21T15:38:02.924Z,2.85
2023-01-21T15:40:38.264Z,2.60
2023-01-21T15:43:15.500Z,2.80
2023-01-21T15:45:50.562Z,2.76
2023-01-21T15:48:41.964Z,2.68
2023-01-21T15:51:22.292Z,2.50
2023-01-21T15:54:02.618Z,2.45
2023-01-21T15:56:56.832Z,2.45
2023-01-21T15:59:36.938Z,2.76
2023-01-21T16:02:16.739Z,2.89
2023-01-21T16:04:55.005Z,2.72
2023-01-21T16:07:33.239Z,2.49
2023-01-21T16:10:10.040Z,2.44
2023-01-21T16:12:50.350Z,2.34
2023-01-21T16:15:32.447Z,2.18
2023-01-21T16:18:08.675Z,1.88
2023-01-21T16:20:37.119Z,1.95
2023-01-21T16:23:08.620Z,1.86
2023-01-21T16:25:47.461Z,1.91
2023-01-21T16:28:16.906Z,1.75
2023-01-21T16:30:54.525Z,2.08
2023-01-21T16:33:22.729Z,2.18
2023-01-21T16:35:52.681Z,2.10
2023-01-21T16:38:22.397Z,2.20
2023-01-21T16:40:52.020Z,2.15
2023-01-21T16:43:25.873Z,2.06
2023-01-21T16:45:55.378Z,1.99
2023-01-21T16:48:27.583Z,1.87
2023-01-21T16:50:55.732Z,1.85
2023-01-21T16:53:24.866Z,2.70
2023-01-21T16:55:54.727Z,3.32
2023-01-21T16:58:29.596Z,3.71
2023-01-21T17:01:06.142Z,3.50
2023-01-21T17:03:34.658Z,3.48
2023-01-21T17:06:08.575Z,3.47
2023-01-21T17:08:37.565Z,3.55
2023-01-21T17:11:09.207Z,3.45
2023-01-21T17:13:41.080Z,3.57
2023-01-21T17:16:20.966Z,3.32
2023-01-21T17:18:55.328Z,3.00
2023-01-21T17:21:31.682Z,3.46
2023-01-21T17:24:01.828Z,3.46
2023-01-21T17:26:33.219Z,3.22
2023-01-21T17:29:11.137Z,3.16
2023-01-21T17:31:41.142Z,3.09
2023-01-21T17:34:21.413Z,3.47
2023-01-21T17:36:51.488Z,3.50
2023-01-21T17:39:56.694Z,1.98
2023-01-21T17:42:26.922Z,1.97
2023-01-21T17:44:58.257Z,1.83
2023-01-21T17:47:30.251Z,1.59
2023-01-21T17:50:01.312Z,1.75
2023-01-21T17:52:29.440Z,1.51
2023-01-21T17:55:15.230Z,1.36
2023-01-21T17:57:43.155Z,1.68
2023-01-21T18:00:31.933Z,1.76
2023-01-21T18:02:59.769Z,1.66
2023-01-21T18:05:28.461Z,1.62
2023-01-21T18:07:56.292Z,1.70
2023-01-21T18:10:27.303Z,1.55
2023-01-21T18:12:56.291Z,1.58
2023-01-21T18:15:24.294Z,1.53
2023-01-21T18:17:55.898Z,1.47
2023-01-21T18:20:25.659Z,1.88
2023-01-21T18:22:54.858Z,1.79
2023-01-21T18:25:23.815Z,1.57
2023-01-21T18:27:54.783Z,1.71
2023-01-21T18:30:25.049Z,1.68
2023-01-21T18:32:55.129Z,1.77
2023-01-21T18:35:26.804Z,1.85
2023-01-21T18:37:54.651Z,1.93
2023-01-21T18:40:24.250Z,1.87
2023-01-21T18:42:55.489Z,1.82
2023-01-21T18:45:26.678Z,1.96
2023-01-21T18:47:56.374Z,1.82
2023-01-21T18:50:25.839Z,1.86
2023-01-21T18:52:54.167Z,1.63
2023-01-21T18:55:23.823Z,1.86
2023-01-21T18:57:52.218Z,1.96
2023-01-21T19:00:23.502Z,2.05
2023-01-21T19:02:53.497Z,2.07
2023-01-21T19:05:25.311Z,1.97
2023-01-21T19:07:53.213Z,2.10
2023-01-21T19:10:21.826Z,1.98
2023-01-21T19:12:49.936Z,2.29
2023-01-21T19:15:20.457Z,2.41
2023-01-21T19:17:49.183Z,1.61
2023-01-21T19:20:20.215Z,1.89
2023-01-21T19:22:50.747Z,1.65
2023-01-21T19:25:19.459Z,1.60
2023-01-21T19:27:49.697Z,1.79
2023-01-21T19:30:23.237Z,1.72
2023-01-21T19:32:52.267Z,1.82
2023-01-21T19:35:22.030Z,2.11
2023-01-21T19:37:51.226Z,2.06
2023-01-21T19:40:21.144Z,2.20
2023-01-21T19:42:49.561Z,1.75
2023-01-21T19:45:19.033Z,2.10
2023-01-21T19:47:49.323Z,2.20
2023-01-21T19:50:19.473Z,2.07
2023-01-21T19:52:48.553Z,2.29
2023-01-21T19:55:19.528Z,2.20
2023-01-21T19:57:53.533Z,2.21
2023-01-21T20:00:23.760Z,2.22
2023-01-21T20:02:51.630Z,2.58
2023-01-21T20:05:19.812Z,2.21
2023-01-21T20:07:50.167Z,2.01
2023-01-21T20:10:21.350Z,2.13
2023-01-21T20:12:49.499Z,1.96
2023-01-21T20:15:19.956Z,2.03
2023-01-21T20:17:52.447Z,1.97
2023-01-21T20:20:22.197Z,1.93
2023-01-21T20:22:50.288Z,1.79
2023-01-21T20:25:21.132Z,2.24
2023-01-21T20:27:52.421Z,2.44
2023-01-21T20:30:22.449Z,2.26
2023-01-21T20:32:50.716Z,2.27
2023-01-21T20:35:19.900Z,2.25
2023-01-21T20:37:49.794Z,2.37
2023-01-21T20:40:21.238Z,2.58
2023-01-21T20:42:49.663Z,2.62
2023-01-21T20:45:19.738Z,2.18
2023-01-21T20:47:50.722Z,1.91
2023-01-21T20:50:21.255Z,1.99
2023-01-21T20:52:49.829Z,2.20
2023-01-21T20:55:21.149Z,1.98
2023-01-21T20:57:49.438Z,1.90
2023-01-21T21:00:20.707Z,1.86
2023-01-21T21:02:48.987Z,1.97
2023-01-21T21:05:18.435Z,2.11
2023-01-21T21:07:46.524Z,2.22
2023-01-21T21:10:22.082Z,1.78
2023-01-21T21:12:51.043Z,2.09
2023-01-21T21:15:20.500Z,2.00
2023-01-21T21:17:49.207Z,2.15
2023-01-21T21:20:23.380Z,2.08
2023-01-21T21:22:51.219Z,2.29
2023-01-21T21:25:22.344Z,1.25
2023-01-21T21:27:50.486Z,1.67
2023-01-21T21:30:20.997Z,2.10
2023-01-21T21:32:48.886Z,1.83
2023-01-21T21:35:23.440Z,1.64
2023-01-21T21:37:52.218Z,1.81
2023-01-21T21:40:22.789Z,1.43
2023-01-21T21:43:08.323Z,1.65
2023-01-21T21:45:37.242Z,1.33
2023-01-21T21:48:23.165Z,1.37
2023-01-21T21:50:56.873Z,1.22
2023-01-21T21:53:25.224Z,1.17
2023-01-21T21:55:54.321Z,1.19
2023-01-21T21:58:22.139Z,1.29
2023-01-21T22:00:54.011Z,1.91
2023-01-21T22:03:21.835Z,1.73
2023-01-21T22:05:52.855Z,1.67
2023-01-21T22:08:20.737Z,1.87
2023-01-21T22:10:59.483Z,1.99
2023-01-21T22:13:28.517Z,1.68
2023-01-21T22:15:57.198Z,1.67
2023-01-21T22:18:25.560Z,1.80
2023-01-21T22:20:56.276Z,1.76
2023-01-21T22:23:24.172Z,1.72
2023-01-21T22:25:51.892Z,1.79
2023-01-21T22:28:21.587Z,1.86
2023-01-21T22:30:49.432Z,1.73
2023-01-21T22:33:17.311Z,1.66
2023-01-21T22:35:45.694Z,1.69
2023-01-21T22:38:13.640Z,1.57
2023-01-21T22:40:41.443Z,1.95
2023-01-21T22:43:09.257Z,1.77
2023-01-21T22:45:38.432Z,1.51
2023-01-21T22:48:06.485Z,1.75
2023-01-21T22:50:34.226Z,1.54
2023-01-21T22:53:02.010Z,1.76
2023-01-21T22:55:29.799Z,1.93
2023-01-21T22:57:57.545Z,1.90
2023-01-21T23:00:41.504Z,1.74
2023-01-21T23:03:10.525Z,1.98
2023-01-21T23:05:38.298Z,1.57
2023-01-21T23:08:06.714Z,1.71
2023-01-21T23:10:34.758Z,1.86
2023-01-21T23:13:02.563Z,1.76
2023-01-21T23:15:30.420Z,1.51
2023-01-21T23:17:59.579Z,1.84
2023-01-21T23:20:28.842Z,2.00
2023-01-21T23:22:57.124Z,1.77
2023-01-21T23:25:25.108Z,1.80
2023-01-21T23:27:52.859Z,1.53
2023-01-21T23:30:20.847Z,1.73
2023-01-21T23:32:49.051Z,1.82
2023-01-21T23:35:19.466Z,1.98
2023-01-21T23:37:47.527Z,1.90
2023-01-21T23:40:15.524Z,1.56
2023-01-21T23:42:43.451Z,1.52
2023-01-21T23:45:11.972Z,1.97
2023-01-21T23:47:39.750Z,1.85
2023-01-21T23:50:08.712Z,1.61
2023-01-21T23:52:38.746Z,1.98
2023-01-21T23:55:08.774Z,1.78
2023-01-21T23:57:36.891Z,1.76
